createdAt,value
2023-05-05T00:00:45.261Z,3.10
2023-05-05T00:03:16.222Z,2.80
2023-05-05T00:05:47.505Z,3.20
2023-05-05T00:08:19.211Z,2.70
2023-05-05T00:10:50.770Z,3.40
2023-05-05T00:13:22.649Z,3.50
2023-05-05T00:15:54.676Z,3.60
2023-05-05T00:18:25.422Z,3.40
2023-05-05T00:20:56.375Z,3.10
2023-05-05T00:27:08.739Z,3.00
2023-05-05T00:29:39.518Z,3.20
2023-05-05T00:32:10.472Z,3.00
2023-05-05T00:34:41.223Z,3.00
2023-05-05T00:37:12.458Z,3.10
2023-05-05T00:39:43.191Z,3.00
2023-05-05T00:42:13.828Z,3.10
2023-05-05T00:44:46.069Z,3.20
2023-05-05T00:47:17.812Z,3.30
2023-05-05T00:49:48.502Z,3.20
2023-05-05T00:52:19.338Z,3.10
2023-05-05T00:54:50.389Z,3.40
2023-05-05T00:57:21.677Z,2.80
2023-05-05T00:59:52.976Z,2.80
2023-05-05T01:02:24.029Z,3.20
2023-05-05T01:04:55.590Z,2.90
2023-05-05T01:07:34.061Z,2.60
2023-05-05T01:10:19.666Z,2.80
2023-05-05T01:13:03.668Z,2.80
2023-05-05T01:15:37.600Z,3.10
2023-05-05T01:20:50.618Z,2.70
2023-05-05T01:23:48.928Z,2.70
2023-05-05T01:26:37.103Z,3.30
2023-05-05T01:29:28.214Z,2.80
2023-05-05T01:32:02.542Z,3.20
2023-05-05T01:34:41.259Z,3.00
2023-05-05T01:37:19.845Z,2.90
2023-05-05T01:39:54.484Z,2.90
2023-05-05T01:42:28.359Z,3.40
2023-05-05T01:47:30.202Z,2.90
2023-05-05T01:50:01.502Z,2.80
2023-05-05T01:52:33.439Z,2.70
2023-05-05T01:55:06.559Z,2.60
2023-05-05T01:57:40.807Z,2.60
2023-05-05T02:00:14.667Z,2.80
2023-05-05T02:05:19.254Z,2.60
2023-05-05T02:07:51.843Z,2.80
2023-05-05T02:10:23.202Z,3.10
2023-05-05T02:12:55.234Z,3.00
2023-05-05T02:15:29.036Z,3.30
2023-05-05T02:18:01.425Z,2.40
2023-05-05T02:20:34.030Z,2.70
2023-05-05T02:23:06.081Z,3.10
2023-05-05T02:25:41.276Z,3.00
2023-05-05T02:28:18.657Z,3.00
2023-05-05T02:30:56.171Z,2.70
2023-05-05T02:33:30.519Z,2.60
2023-05-05T02:36:05.893Z,2.60
2023-05-05T02:38:39.459Z,2.60
2023-05-05T02:41:12.587Z,2.70
2023-05-05T02:43:46.387Z,2.70
2023-05-05T02:46:17.734Z,2.70
2023-05-05T02:48:48.980Z,2.40
2023-05-05T02:51:19.651Z,3.50
2023-05-05T02:53:52.395Z,2.40
2023-05-05T02:56:33.773Z,2.40
2023-05-05T02:59:10.842Z,3.00
2023-05-05T03:01:54.799Z,2.10
2023-05-05T03:04:30.578Z,2.30
2023-05-05T03:07:08.912Z,2.50
2023-05-05T03:09:44.563Z,2.60
2023-05-05T03:12:22.873Z,2.90
2023-05-05T03:14:55.438Z,2.70
2023-05-05T03:17:29.111Z,2.90
2023-05-05T03:20:02.932Z,2.60
2023-05-05T03:22:38.474Z,2.20
2023-05-05T03:25:10.604Z,2.80
2023-05-05T03:27:41.809Z,2.70
2023-05-05T03:30:14.100Z,2.20
2023-05-05T03:32:44.829Z,2.20
2023-05-05T03:35:15.727Z,2.40
2023-05-05T03:37:46.456Z,2.50
2023-05-05T03:40:17.818Z,2.50
2023-05-05T03:42:48.455Z,2.40
2023-05-05T03:45:19.440Z,3.20
2023-05-05T03:47:50.110Z,2.80
2023-05-05T03:50:20.971Z,2.70
2023-05-05T03:52:52.016Z,2.20
2023-05-05T03:55:23.149Z,2.60
2023-05-05T03:57:53.846Z,2.80
2023-05-05T04:00:24.849Z,2.70
2023-05-05T04:02:56.286Z,2.80
2023-05-05T04:05:27.556Z,2.70
2023-05-05T04:07:58.937Z,7.20
2023-05-05T04:10:30.067Z,6.00
2023-05-05T04:13:01.351Z,7.20
2023-05-05T04:15:32.573Z,8.70
2023-05-05T04:18:03.568Z,8.60
2023-05-05T04:20:36.017Z,7.80
2023-05-05T04:23:06.822Z,12.10
2023-05-05T04:25:37.659Z,8.00
2023-05-05T04:28:08.466Z,9.50
2023-05-05T04:30:39.462Z,11.00
2023-05-05T04:33:10.217Z,9.90
2023-05-05T04:35:41.079Z,8.80
2023-05-05T04:38:11.862Z,9.10
2023-05-05T04:40:42.963Z,9.50
2023-05-05T04:43:13.603Z,8.90
2023-05-05T04:45:52.972Z,9.00
2023-05-05T04:48:23.672Z,8.20
2023-05-05T04:50:54.325Z,7.90
2023-05-05T04:53:25.086Z,8.40
2023-05-05T04:55:56.183Z,7.90
2023-05-05T04:58:27.077Z,7.30
2023-05-05T05:00:57.897Z,7.20
2023-05-05T05:03:28.724Z,6.50
2023-05-05T05:05:59.530Z,7.30
2023-05-05T05:08:30.236Z,6.30
2023-05-05T05:11:01.660Z,7.00
2023-05-05T05:13:32.625Z,7.00
2023-05-05T05:16:03.790Z,6.90
2023-05-05T05:18:34.565Z,6.70
2023-05-05T05:21:05.460Z,7.10
2023-05-05T05:23:36.132Z,5.90
2023-05-05T05:26:07.406Z,6.80
2023-05-05T05:28:38.184Z,6.10
2023-05-05T05:31:09.038Z,6.10
2023-05-05T05:33:39.865Z,6.80
2023-05-05T05:36:11.020Z,6.40
2023-05-05T05:38:41.972Z,6.00
2023-05-05T05:41:12.596Z,6.20
2023-05-05T05:43:43.286Z,6.20
2023-05-05T05:46:14.017Z,5.50
2023-05-05T05:48:44.920Z,5.80
2023-05-05T05:51:15.654Z,5.10
2023-05-05T05:53:46.492Z,6.30
2023-05-05T05:56:17.525Z,5.60
2023-05-05T05:58:48.707Z,5.90
2023-05-05T06:01:19.617Z,5.90
2023-05-05T06:03:50.490Z,5.20
2023-05-05T06:06:21.309Z,5.10
2023-05-05T06:08:52.410Z,5.70
2023-05-05T06:11:24.104Z,5.40
2023-05-05T06:13:54.848Z,5.50
2023-05-05T06:16:25.821Z,4.30
2023-05-05T06:18:56.624Z,5.10
2023-05-05T06:21:27.936Z,5.30
2023-05-05T06:23:58.718Z,4.80
2023-05-05T06:26:29.759Z,5.10
2023-05-05T06:29:00.526Z,4.80
2023-05-05T06:31:31.305Z,4.70
2023-05-05T06:34:02.185Z,4.70
2023-05-05T06:36:33.414Z,4.60
2023-05-05T06:39:04.375Z,4.30
2023-05-05T06:41:35.046Z,4.40
2023-05-05T06:44:06.849Z,5.00
2023-05-05T06:46:37.525Z,4.30
2023-05-05T06:49:08.407Z,4.30
2023-05-05T06:51:40.547Z,4.40
2023-05-05T06:56:42.172Z,4.50
2023-05-05T06:59:15.683Z,3.70
2023-05-05T07:01:46.446Z,4.20
2023-05-05T07:04:17.257Z,3.70
2023-05-05T07:06:48.127Z,4.10
2023-05-05T07:09:19.212Z,3.90
2023-05-05T07:11:50.377Z,4.30
2023-05-05T07:14:23.614Z,3.90
2023-05-05T07:16:55.321Z,4.20
2023-05-05T07:19:26.345Z,4.80
2023-05-05T07:21:57.013Z,4.00
2023-05-05T07:24:27.896Z,4.10
2023-05-05T07:26:59.276Z,3.90
2023-05-05T07:29:30.182Z,4.30
2023-05-05T07:32:00.983Z,3.70
2023-05-05T07:34:34.258Z,3.70
2023-05-05T07:37:05.338Z,4.00
2023-05-05T07:39:36.642Z,4.30
2023-05-05T07:42:07.865Z,3.90
2023-05-05T07:44:38.885Z,3.80
2023-05-05T07:47:09.912Z,3.30
2023-05-05T07:49:40.910Z,4.00
2023-05-05T07:52:11.745Z,4.00
2023-05-05T07:54:42.734Z,4.10
2023-05-05T07:57:13.608Z,3.40
2023-05-05T07:59:44.552Z,3.80
2023-05-05T08:02:15.929Z,3.50
2023-05-05T08:04:46.807Z,3.20
2023-05-05T08:07:17.704Z,3.60
2023-05-05T08:09:48.571Z,3.60
2023-05-05T08:12:19.613Z,3.40
2023-05-05T08:14:50.653Z,4.20
2023-05-05T08:17:21.360Z,4.30
2023-05-05T08:19:54.842Z,3.60
2023-05-05T08:22:26.481Z,3.70
2023-05-05T08:24:57.228Z,3.40
2023-05-05T08:27:28.037Z,3.60
2023-05-05T08:29:59.049Z,3.70
2023-05-05T08:32:29.979Z,3.50
2023-05-05T08:35:02.104Z,3.80
2023-05-05T08:37:33.452Z,2.90
2023-05-05T08:40:04.517Z,3.40
2023-05-05T08:42:39.006Z,3.60
2023-05-05T08:45:11.991Z,3.30
2023-05-05T08:47:43.639Z,3.20
2023-05-05T08:50:15.964Z,3.20
2023-05-05T08:52:51.811Z,3.00
2023-05-05T08:55:26.686Z,3.20
2023-05-05T08:58:01.182Z,3.20
2023-05-05T09:00:32.475Z,3.30
2023-05-05T09:03:04.940Z,3.00
2023-05-05T09:05:36.924Z,3.20
2023-05-05T09:08:09.745Z,3.40
2023-05-05T09:10:43.586Z,3.10
2023-05-05T09:15:49.983Z,3.20
2023-05-05T09:18:20.749Z,3.20
2023-05-05T09:20:52.241Z,3.10
2023-05-05T09:23:23.650Z,3.50
2023-05-05T09:26:08.916Z,3.10
2023-05-05T09:28:40.378Z,2.90
2023-05-05T09:31:17.557Z,2.60
2023-05-05T09:33:49.319Z,3.20
2023-05-05T09:36:20.215Z,3.00
2023-05-05T09:39:07.822Z,2.90
2023-05-05T09:41:43.612Z,3.00
2023-05-05T09:44:16.113Z,2.90
2023-05-05T09:46:55.381Z,3.10
2023-05-05T09:49:27.222Z,2.80
2023-05-05T09:51:58.803Z,3.00
2023-05-05T09:54:32.853Z,2.50
2023-05-05T09:57:04.022Z,3.10
2023-05-05T09:59:34.835Z,2.40
2023-05-05T10:02:14.623Z,2.70
2023-05-05T10:04:45.406Z,2.70
2023-05-05T10:07:25.610Z,2.60
2023-05-05T10:09:56.534Z,2.60
2023-05-05T10:12:29.003Z,2.90
2023-05-05T10:15:02.504Z,2.80
2023-05-05T10:17:37.394Z,2.40
2023-05-05T10:20:11.622Z,2.30
2023-05-05T10:22:52.557Z,2.50
2023-05-05T10:25:31.295Z,2.60
2023-05-05T10:28:05.222Z,2.50
2023-05-05T10:30:44.434Z,2.90
2023-05-05T10:35:58.329Z,2.30
2023-05-05T10:38:32.762Z,2.50
2023-05-05T10:41:04.540Z,2.70
2023-05-05T10:43:35.500Z,2.40
2023-05-05T10:46:07.699Z,2.40
2023-05-05T10:48:43.944Z,2.50
2023-05-05T10:51:39.494Z,2.70
2023-05-05T10:54:17.722Z,2.40
2023-05-05T10:56:51.204Z,2.30
2023-05-05T10:59:43.542Z,2.40
2023-05-05T11:02:28.320Z,2.10
2023-05-05T11:05:15.337Z,1.90
2023-05-05T11:07:47.256Z,2.40
2023-05-05T11:10:20.694Z,2.40
2023-05-05T11:13:22.162Z,2.30
2023-05-05T11:15:55.291Z,2.00
2023-05-05T11:18:35.855Z,2.30
2023-05-05T11:21:20.847Z,2.20
2023-05-05T11:23:56.166Z,2.50
2023-05-05T11:26:53.424Z,2.20
2023-05-05T11:29:24.194Z,2.00
2023-05-05T11:32:15.848Z,2.10
2023-05-05T11:34:53.012Z,1.70
2023-05-05T11:37:25.386Z,2.10
2023-05-05T11:40:14.757Z,2.00
2023-05-05T11:42:45.704Z,2.60
2023-05-05T11:45:26.455Z,2.00
2023-05-05T11:48:27.353Z,2.10
2023-05-05T11:50:58.757Z,2.10
2023-05-05T11:53:30.813Z,2.20
2023-05-05T11:56:12.393Z,2.50
2023-05-05T11:58:43.438Z,2.30
2023-05-05T12:01:14.620Z,2.40
2023-05-05T12:03:46.363Z,1.90
2023-05-05T12:06:17.386Z,1.60
2023-05-05T12:08:48.441Z,2.40
2023-05-05T12:11:19.646Z,2.60
2023-05-05T12:13:50.531Z,1.70
2023-05-05T12:16:22.512Z,2.60
2023-05-05T12:19:06.901Z,1.80
2023-05-05T12:21:38.424Z,1.90
2023-05-05T12:24:13.912Z,2.20
2023-05-05T12:26:44.990Z,2.00
2023-05-05T12:29:24.706Z,2.20
2023-05-05T12:31:56.093Z,1.80
2023-05-05T12:34:27.423Z,1.60
2023-05-05T12:36:58.940Z,1.90
2023-05-05T12:39:38.500Z,1.60
2023-05-05T12:42:09.575Z,2.00
2023-05-05T12:44:40.873Z,1.90
2023-05-05T12:47:12.386Z,1.60
2023-05-05T12:49:51.048Z,2.40
2023-05-05T12:52:21.947Z,1.70
2023-05-05T12:54:57.251Z,1.70
2023-05-05T12:57:28.277Z,1.50
2023-05-05T12:59:59.756Z,1.80
2023-05-05T13:02:37.553Z,1.70
2023-05-05T13:05:10.075Z,1.50
2023-05-05T13:07:52.659Z,1.70
2023-05-05T13:10:25.084Z,1.60
2023-05-05T13:12:58.137Z,1.80
2023-05-05T13:15:29.800Z,1.70
2023-05-05T13:18:03.945Z,1.80
2023-05-05T13:20:34.666Z,1.70
2023-05-05T13:23:06.114Z,2.00
2023-05-05T13:25:37.148Z,1.90
2023-05-05T13:28:08.206Z,1.50
2023-05-05T13:30:39.045Z,1.40
2023-05-05T13:33:10.107Z,1.70
2023-05-05T13:35:41.617Z,1.80
2023-05-05T13:38:12.796Z,2.00
2023-05-05T13:40:44.002Z,2.10
2023-05-05T13:43:14.897Z,1.70
2023-05-05T13:45:45.924Z,1.80
2023-05-05T13:48:16.890Z,1.80
2023-05-05T13:50:48.525Z,2.10
2023-05-05T13:53:19.531Z,3.50
2023-05-05T13:55:50.568Z,4.20
2023-05-05T13:58:21.284Z,4.00
2023-05-05T14:00:52.439Z,4.00
2023-05-05T14:03:23.943Z,3.90
2023-05-05T14:05:54.910Z,3.70
2023-05-05T14:08:25.932Z,3.50
2023-05-05T14:10:56.788Z,3.30
2023-05-05T14:13:27.777Z,3.60
2023-05-05T14:15:58.510Z,3.50
2023-05-05T14:18:29.784Z,3.60
2023-05-05T14:21:00.964Z,2.70
2023-05-05T14:23:32.041Z,3.10
2023-05-05T14:26:03.067Z,3.30
2023-05-05T14:28:34.354Z,3.00
2023-05-05T14:31:06.108Z,3.10
2023-05-05T14:33:36.994Z,2.60
2023-05-05T14:36:09.142Z,3.00
2023-05-05T14:38:40.278Z,2.70
2023-05-05T14:41:11.170Z,2.70
2023-05-05T14:43:42.524Z,2.60
2023-05-05T14:46:13.559Z,2.90
2023-05-05T14:48:46.661Z,3.20
2023-05-05T14:51:18.048Z,3.10
2023-05-05T14:53:48.860Z,2.60
2023-05-05T14:56:21.883Z,2.70
2023-05-05T14:58:52.897Z,2.60
2023-05-05T15:01:25.047Z,2.90
2023-05-05T15:03:56.295Z,2.90
2023-05-05T15:06:28.271Z,3.10
2023-05-05T15:08:59.011Z,2.40
2023-05-05T15:11:29.654Z,2.70
2023-05-05T15:14:00.496Z,2.40
2023-05-05T15:16:32.649Z,2.90
2023-05-05T15:19:05.373Z,2.60
2023-05-05T15:21:36.103Z,2.60
2023-05-05T15:24:08.124Z,2.60
2023-05-05T15:26:38.851Z,2.70
2023-05-05T15:29:09.864Z,2.50
2023-05-05T15:31:41.666Z,2.30
2023-05-05T15:34:14.089Z,2.70
2023-05-05T15:36:44.913Z,1.90
2023-05-05T15:39:15.874Z,2.40
2023-05-05T15:41:46.675Z,2.10
2023-05-05T15:44:17.748Z,2.30
2023-05-05T15:46:50.499Z,2.00
2023-05-05T15:49:21.533Z,2.10
2023-05-05T15:51:52.254Z,2.20
2023-05-05T15:54:22.990Z,2.30
2023-05-05T15:56:55.090Z,2.30
2023-05-05T15:59:26.081Z,2.30
2023-05-05T16:01:57.135Z,2.30
2023-05-05T16:04:28.300Z,2.60
2023-05-05T16:06:59.278Z,2.30
2023-05-05T16:09:30.146Z,2.30
2023-05-05T16:12:01.390Z,2.50
2023-05-05T16:14:32.861Z,2.50
2023-05-05T16:17:04.417Z,2.60
2023-05-05T16:19:35.673Z,2.30
2023-05-05T16:22:07.784Z,2.50
2023-05-05T16:24:38.709Z,2.50
2023-05-05T16:27:09.924Z,2.90
2023-05-05T16:29:40.945Z,2.30
2023-05-05T16:32:11.891Z,2.30
2023-05-05T16:34:42.923Z,2.70
2023-05-05T16:37:13.724Z,2.30
2023-05-05T16:39:44.456Z,2.80
2023-05-05T16:42:15.234Z,2.10
2023-05-05T16:44:46.199Z,2.60
2023-05-05T16:47:17.242Z,2.30
2023-05-05T16:49:48.087Z,2.40
2023-05-05T16:52:19.727Z,2.40
2023-05-05T16:54:55.741Z,2.40
2023-05-05T16:57:27.156Z,1.90
2023-05-05T16:59:59.541Z,1.90
2023-05-05T17:02:30.696Z,2.10
2023-05-05T17:05:01.675Z,2.10
2023-05-05T17:07:32.842Z,2.10
2023-05-05T17:10:04.146Z,2.40
2023-05-05T17:12:35.399Z,2.50
2023-05-05T17:15:08.512Z,2.00
2023-05-05T17:17:42.347Z,2.10
2023-05-05T17:20:15.915Z,1.80
2023-05-05T17:22:47.290Z,1.80
2023-05-05T17:25:18.823Z,1.80
2023-05-05T17:27:50.080Z,2.10
2023-05-05T17:30:21.396Z,2.40
2023-05-05T17:32:52.731Z,2.00
2023-05-05T17:35:23.995Z,2.30
2023-05-05T17:37:55.259Z,2.00
2023-05-05T17:40:26.341Z,1.90
2023-05-05T17:42:57.508Z,1.90
2023-05-05T17:45:28.620Z,2.10
2023-05-05T17:47:59.793Z,1.80
2023-05-05T17:50:30.811Z,2.40
2023-05-05T17:53:02.293Z,1.70
2023-05-05T17:55:33.426Z,2.00
2023-05-05T17:58:04.448Z,2.00
2023-05-05T18:00:37.500Z,2.00
2023-05-05T18:03:08.878Z,2.10
2023-05-05T18:05:40.471Z,2.10
2023-05-05T18:08:11.827Z,2.00
2023-05-05T18:10:42.698Z,2.20
2023-05-05T18:13:13.919Z,2.00
2023-05-05T18:15:45.024Z,2.40
2023-05-05T18:18:16.122Z,2.70
2023-05-05T18:20:47.635Z,2.50
2023-05-05T18:23:18.550Z,2.90
2023-05-05T18:25:49.813Z,2.60
2023-05-05T18:28:20.963Z,2.50
2023-05-05T18:30:52.215Z,3.20
2023-05-05T18:33:23.228Z,2.90
2023-05-05T18:35:54.369Z,2.20
2023-05-05T18:38:25.349Z,2.60
2023-05-05T18:40:56.396Z,3.00
2023-05-05T18:43:27.949Z,3.20
2023-05-05T18:45:59.451Z,2.70
2023-05-05T18:48:30.769Z,2.70
2023-05-05T18:51:05.055Z,2.10
2023-05-05T18:53:36.208Z,2.50
2023-05-05T18:56:07.977Z,2.50
2023-05-05T18:58:39.344Z,2.10
2023-05-05T19:01:10.271Z,2.40
2023-05-05T19:03:41.623Z,2.60
2023-05-05T19:06:12.755Z,2.30
2023-05-05T19:08:43.922Z,2.50
2023-05-05T19:11:15.890Z,2.40
2023-05-05T19:13:46.881Z,2.40
2023-05-05T19:16:18.205Z,2.70
2023-05-05T19:18:49.579Z,2.60
2023-05-05T19:21:20.596Z,2.80
2023-05-05T19:23:51.674Z,2.60
2023-05-05T19:26:24.504Z,2.40
2023-05-05T19:28:56.167Z,2.30
2023-05-05T19:31:28.117Z,2.50
2023-05-05T19:34:03.456Z,2.90
2023-05-05T19:36:35.390Z,2.70
2023-05-05T19:39:07.181Z,2.60
2023-05-05T19:41:38.158Z,2.50
2023-05-05T19:44:09.385Z,2.70
2023-05-05T19:46:40.575Z,2.90
2023-05-05T19:49:12.196Z,2.60
2023-05-05T19:51:43.858Z,2.80
2023-05-05T19:54:15.344Z,2.60
2023-05-05T19:56:48.516Z,2.60
2023-05-05T19:59:19.711Z,2.70
2023-05-05T20:01:50.887Z,2.70
2023-05-05T20:04:21.919Z,2.70
2023-05-05T20:06:53.007Z,3.00
2023-05-05T20:09:23.850Z,3.10
2023-05-05T20:11:56.534Z,3.30
2023-05-05T20:14:27.731Z,2.70
2023-05-05T20:16:58.667Z,2.70
2023-05-05T20:19:29.918Z,2.80
2023-05-05T20:22:01.061Z,2.80
2023-05-05T20:24:34.105Z,2.90
2023-05-05T20:27:05.435Z,2.80
2023-05-05T20:29:38.613Z,3.00
2023-05-05T20:32:09.915Z,3.10
2023-05-05T20:34:41.086Z,2.90
2023-05-05T20:37:13.756Z,3.20
2023-05-05T20:39:45.101Z,3.00
2023-05-05T20:42:16.234Z,3.10
2023-05-05T20:44:47.162Z,2.90
2023-05-05T20:47:18.062Z,3.50
2023-05-05T20:49:49.075Z,2.70
2023-05-05T20:52:20.008Z,3.20
2023-05-05T20:54:51.189Z,3.10
2023-05-05T20:57:21.995Z,3.00
2023-05-05T20:59:53.044Z,2.90
2023-05-05T21:02:33.601Z,3.70
2023-05-05T21:05:05.247Z,3.50
2023-05-05T21:07:36.320Z,2.70
2023-05-05T21:10:09.345Z,2.90
2023-05-05T21:12:41.359Z,3.10
2023-05-05T21:15:13.731Z,2.80
2023-05-05T21:17:44.679Z,3.40
2023-05-05T21:20:16.546Z,2.90
2023-05-05T21:22:47.590Z,2.50
2023-05-05T21:25:21.569Z,2.70
2023-05-05T21:27:52.758Z,2.20
2023-05-05T21:30:24.341Z,2.90
2023-05-05T21:32:55.221Z,2.50
2023-05-05T21:35:26.242Z,2.60
2023-05-05T21:37:56.998Z,3.00
2023-05-05T21:40:27.804Z,2.40
2023-05-05T21:42:58.728Z,2.20
2023-05-05T21:45:29.883Z,2.50
2023-05-05T21:48:00.992Z,2.80
2023-05-05T21:50:31.974Z,3.00
2023-05-05T21:53:02.699Z,2.60
2023-05-05T21:55:33.535Z,3.00
2023-05-05T21:58:04.223Z,2.60
2023-05-05T22:00:35.008Z,2.60
2023-05-05T22:03:06.158Z,2.60
2023-05-05T22:05:37.214Z,2.60
2023-05-05T22:08:08.351Z,3.20
2023-05-05T22:10:40.012Z,2.50
2023-05-05T22:13:11.288Z,2.40
2023-05-05T22:15:46.524Z,2.70
2023-05-05T22:18:18.275Z,2.20
2023-05-05T22:20:49.002Z,3.40
2023-05-05T22:23:19.764Z,2.60
2023-05-05T22:25:50.577Z,2.30
2023-05-05T22:28:22.034Z,2.90
2023-05-05T22:30:52.870Z,2.90
2023-05-05T22:33:24.424Z,2.80
2023-05-05T22:35:55.457Z,2.60
2023-05-05T22:38:26.369Z,2.80
2023-05-05T22:40:57.083Z,2.00
2023-05-05T22:43:27.848Z,2.10
2023-05-05T22:45:58.483Z,2.40
2023-05-05T22:48:29.146Z,2.10
2023-05-05T22:51:00.002Z,2.40
2023-05-05T22:53:30.753Z,2.30
2023-05-05T22:56:01.493Z,2.30
2023-05-05T22:58:32.315Z,2.50
2023-05-05T23:01:02.993Z,2.50
2023-05-05T23:03:33.848Z,2.40
2023-05-05T23:06:04.741Z,2.60
2023-05-05T23:08:35.517Z,2.20
2023-05-05T23:11:06.534Z,2.50
2023-05-05T23:13:37.162Z,2.20
2023-05-05T23:16:08.693Z,2.20
2023-05-05T23:18:40.073Z,2.30
2023-05-05T23:21:11.642Z,2.30
2023-05-05T23:23:42.467Z,2.70
2023-05-05T23:26:14.084Z,2.00
2023-05-05T23:28:44.760Z,2.50
2023-05-05T23:31:15.553Z,2.10
2023-05-05T23:33:46.408Z,2.40
2023-05-05T23:36:17.009Z,2.40
2023-05-05T23:38:47.715Z,2.30
2023-05-05T23:41:18.560Z,2.10
2023-05-05T23:43:49.504Z,2.30
2023-05-05T23:46:20.329Z,2.40
2023-05-05T23:48:51.400Z,2.20
2023-05-05T23:51:22.429Z,2.30
2023-05-05T23:53:53.171Z,2.70
2023-05-05T23:56:24.220Z,2.70
2023-05-05T23:58:55.437Z,2.70
